sensor_id;sensor_type;location;lat;lon;timestamp;pressure;altitude;pressure_sealevel;temperature;humidity
63181;BME280;49273;37.772;-122.432;2022-09-01T00:00:51;100746.45;;;19.56;63.30
63181;BME280;49273;37.772;-122.432;2022-09-01T00:03:20;100746.27;;;19.63;63.16
63181;BME280;49273;37.772;-122.432;2022-09-01T00:05:50;100747.80;;;19.47;63.67
63181;BME280;49273;37.772;-122.432;2022-09-01T00:08:18;100737.76;;;19.58;62.78
63181;BME280;49273;37.772;-122.432;2022-09-01T00:10:47;100744.28;;;19.57;63.16
63181;BME280;49273;37.772;-122.432;2022-09-01T00:13:16;100736.81;;;19.80;62.97
63181;BME280;49273;37.772;-122.432;2022-09-01T00:15:44;100734.73;;;19.73;63.03
63181;BME280;49273;37.772;-122.432;2022-09-01T00:18:12;100728.79;;;19.57;63.59
63181;BME280;49273;37.772;-122.432;2022-09-01T00:20:40;100725.81;;;19.82;63.22
63181;BME280;49273;37.772;-122.432;2022-09-01T00:23:09;100734.63;;;19.70;63.11
63181;BME280;49273;37.772;-122.432;2022-09-01T00:25:37;100734.71;;;19.90;62.90
63181;BME280;49273;37.772;-122.432;2022-09-01T00:28:06;100731.54;;;19.80;63.27
63181;BME280;49273;37.772;-122.432;2022-09-01T00:30:35;100733.39;;;20.06;62.56
63181;BME280;49273;37.772;-122.432;2022-09-01T00:33:02;100730.72;;;19.51;64.05
63181;BME280;49273;37.772;-122.432;2022-09-01T00:35:30;100726.19;;;19.40;64.68
63181;BME280;49273;37.772;-122.432;2022-09-01T00:37:58;100733.96;;;19.50;64.50
63181;BME280;49273;37.772;-122.432;2022-09-01T00:40:27;100725.24;;;19.54;64.47
63181;BME280;49273;37.772;-122.432;2022-09-01T00:42:55;100719.22;;;19.61;64.17
63181;BME280;49273;37.772;-122.432;2022-09-01T00:45:24;100722.07;;;19.57;64.44
63181;BME280;49273;37.772;-122.432;2022-09-01T00:47:53;100721.59;;;20.31;62.46
63181;BME280;49273;37.772;-122.432;2022-09-01T00:50:22;100725.97;;;20.06;62.78
63181;BME280;49273;37.772;-122.432;2022-09-01T00:52:52;100725.93;;;20.52;61.63
63181;BME280;49273;37.772;-122.432;2022-09-01T00:55:26;100725.87;;;20.54;61.13
63181;BME280;49273;37.772;-122.432;2022-09-01T00:57:56;100716.86;;;20.72;60.49
63181;BME280;49273;37.772;-122.432;2022-09-01T01:00:28;100720.98;;;20.90;60.27
63181;BME280;49273;37.772;-122.432;2022-09-01T01:02:57;100726.24;;;21.71;57.80
63181;BME280;49273;37.772;-122.432;2022-09-01T01:05:30;100720.47;;;21.36;58.44
63181;BME280;49273;37.772;-122.432;2022-09-01T01:07:59;100722.61;;;21.88;57.03
63181;BME280;49273;37.772;-122.432;2022-09-01T01:10:30;100710.93;;;21.99;56.83
63181;BME280;49273;37.772;-122.432;2022-09-01T01:13:00;100718.01;;;22.08;56.19
63181;BME280;49273;37.772;-122.432;2022-09-01T01:15:28;100709.03;;;22.33;55.51
63181;BME280;49273;37.772;-122.432;2022-09-01T01:17:57;100718.96;;;21.64;57.60
63181;BME280;49273;37.772;-122.432;2022-09-01T01:20:27;100709.25;;;22.80;54.44
63181;BME280;49273;37.772;-122.432;2022-09-01T01:23:04;100709.08;;;21.97;56.56
63181;BME280;49273;37.772;-122.432;2022-09-01T01:25:40;100703.71;;;21.12;59.38
63181;BME280;49273;37.772;-122.432;2022-09-01T01:28:14;100699.36;;;21.28;59.10
63181;BME280;49273;37.772;-122.432;2022-09-01T01:30:45;100691.65;;;20.72;60.56
63181;BME280;49273;37.772;-122.432;2022-09-01T01:33:13;100693.28;;;21.14;59.75
63181;BME280;49273;37.772;-122.432;2022-09-01T01:35:42;100690.49;;;21.74;57.65
63181;BME280;49273;37.772;-122.432;2022-09-01T01:38:10;100685.57;;;22.01;56.97
63181;BME280;49273;37.772;-122.432;2022-09-01T01:40:38;100678.34;;;21.99;57.00
63181;BME280;49273;37.772;-122.432;2022-09-01T01:43:08;100688.35;;;22.82;54.69
63181;BME280;49273;37.772;-122.432;2022-09-01T01:45:36;100687.72;;;23.17;53.42
63181;BME280;49273;37.772;-122.432;2022-09-01T01:48:05;100686.78;;;23.35;52.75
63181;BME280;49273;37.772;-122.432;2022-09-01T01:50:34;100683.38;;;23.54;52.16
63181;BME280;49273;37.772;-122.432;2022-09-01T01:53:05;100673.75;;;21.91;56.45
63181;BME280;49273;37.772;-122.432;2022-09-01T01:55:35;100670.90;;;21.01;59.92
63181;BME280;49273;37.772;-122.432;2022-09-01T01:58:03;100668.40;;;20.39;62.02
63181;BME280;49273;37.772;-122.432;2022-09-01T02:00:32;100663.17;;;19.86;64.05
63181;BME280;49273;37.772;-122.432;2022-09-01T02:03:00;100669.38;;;19.68;64.99
63181;BME280;49273;37.772;-122.432;2022-09-01T02:05:31;100674.91;;;19.52;65.89
63181;BME280;49273;37.772;-122.432;2022-09-01T02:08:02;100687.41;;;19.36;66.40
63181;BME280;49273;37.772;-122.432;2022-09-01T02:10:33;100681.33;;;19.18;67.49
63181;BME280;49273;37.772;-122.432;2022-09-01T02:13:05;100681.72;;;19.01;68.03
63181;BME280;49273;37.772;-122.432;2022-09-01T02:15:37;100693.53;;;18.84;68.73
63181;BME280;49273;37.772;-122.432;2022-09-01T02:18:08;100685.50;;;18.89;68.69
63181;BME280;49273;37.772;-122.432;2022-09-01T02:20:36;100679.82;;;18.93;68.66
63181;BME280;49273;37.772;-122.432;2022-09-01T02:23:05;100686.13;;;19.06;68.41
63181;BME280;49273;37.772;-122.432;2022-09-01T02:25:33;100689.89;;;18.87;69.03
63181;BME280;49273;37.772;-122.432;2022-09-01T02:28:02;100688.29;;;18.90;68.96
63181;BME280;49273;37.772;-122.432;2022-09-01T02:30:30;100690.74;;;18.74;69.77
63181;BME280;49273;37.772;-122.432;2022-09-01T02:32:58;100692.24;;;18.71;70.04
63181;BME280;49273;37.772;-122.432;2022-09-01T02:35:27;100682.55;;;18.52;70.91
63181;BME280;49273;37.772;-122.432;2022-09-01T02:37:55;100678.42;;;18.46;71.07
63181;BME280;49273;37.772;-122.432;2022-09-01T02:40:23;100678.93;;;18.56;70.81
63181;BME280;49273;37.772;-122.432;2022-09-01T02:42:51;100677.73;;;18.53;70.68
63181;BME280;49273;37.772;-122.432;2022-09-01T02:45:19;100681.05;;;18.63;70.52
63181;BME280;49273;37.772;-122.432;2022-09-01T02:47:47;100681.30;;;18.58;70.59
63181;BME280;49273;37.772;-122.432;2022-09-01T02:50:15;100687.06;;;18.37;71.42
63181;BME280;49273;37.772;-122.432;2022-09-01T02:52:44;100685.32;;;18.38;71.31
63181;BME280;49273;37.772;-122.432;2022-09-01T02:55:13;100686.64;;;18.24;71.99
63181;BME280;49273;37.772;-122.432;2022-09-01T02:57:41;100692.50;;;18.10;72.59
63181;BME280;49273;37.772;-122.432;2022-09-01T03:00:10;100693.55;;;18.17;72.40
63181;BME280;49273;37.772;-122.432;2022-09-01T03:02:38;100692.30;;;18.17;72.44
63181;BME280;49273;37.772;-122.432;2022-09-01T03:05:08;100695.97;;;18.34;71.84
63181;BME280;49273;37.772;-122.432;2022-09-01T03:07:37;100699.06;;;17.88;73.32
63181;BME280;49273;37.772;-122.432;2022-09-01T03:10:07;100699.21;;;17.96;73.21
63181;BME280;49273;37.772;-122.432;2022-09-01T03:12:36;100699.79;;;18.05;73.21
63181;BME280;49273;37.772;-122.432;2022-09-01T03:15:05;100701.55;;;17.91;73.58
63181;BME280;49273;37.772;-122.432;2022-09-01T03:17:33;100704.77;;;17.76;74.50
63181;BME280;49273;37.772;-122.432;2022-09-01T03:20:01;100707.56;;;17.88;73.95
63181;BME280;49273;37.772;-122.432;2022-09-01T03:22:29;100707.35;;;17.95;73.76
63181;BME280;49273;37.772;-122.432;2022-09-01T03:24:58;100711.69;;;17.81;74.30
63181;BME280;49273;37.772;-122.432;2022-09-01T03:27:26;100710.27;;;17.81;74.19
63181;BME280;49273;37.772;-122.432;2022-09-01T03:29:54;100708.44;;;17.97;73.66
63181;BME280;49273;37.772;-122.432;2022-09-01T03:32:22;100709.15;;;17.81;74.28
63181;BME280;49273;37.772;-122.432;2022-09-01T03:34:50;100711.57;;;17.65;74.85
63181;BME280;49273;37.772;-122.432;2022-09-01T03:37:19;100712.08;;;17.72;74.97
63181;BME280;49273;37.772;-122.432;2022-09-01T03:39:47;100720.73;;;17.51;75.60
63181;BME280;49273;37.772;-122.432;2022-09-01T03:42:16;100728.82;;;17.73;74.78
63181;BME280;49273;37.772;-122.432;2022-09-01T03:44:44;100727.81;;;17.70;75.09
63181;BME280;49273;37.772;-122.432;2022-09-01T03:47:13;100731.32;;;17.83;74.09
63181;BME280;49273;37.772;-122.432;2022-09-01T03:49:41;100733.04;;;17.61;74.98
63181;BME280;49273;37.772;-122.432;2022-09-01T03:52:09;100737.40;;;17.77;73.87
63181;BME280;49273;37.772;-122.432;2022-09-01T03:54:37;100727.98;;;17.85;73.92
63181;BME280;49273;37.772;-122.432;2022-09-01T03:57:06;100728.15;;;17.83;73.86
63181;BME280;49273;37.772;-122.432;2022-09-01T03:59:34;100726.40;;;17.77;73.73
63181;BME280;49273;37.772;-122.432;2022-09-01T04:02:03;100721.45;;;17.81;73.72
63181;BME280;49273;37.772;-122.432;2022-09-01T04:04:31;100721.87;;;17.81;73.28
63181;BME280;49273;37.772;-122.432;2022-09-01T04:06:59;100723.39;;;17.85;72.97
63181;BME280;49273;37.772;-122.432;2022-09-01T04:09:27;100723.12;;;17.81;72.89
63181;BME280;49273;37.772;-122.432;2022-09-01T04:11:55;100726.41;;;17.65;73.96
63181;BME280;49273;37.772;-122.432;2022-09-01T04:14:23;100728.91;;;17.69;73.64
63181;BME280;49273;37.772;-122.432;2022-09-01T04:16:51;100725.44;;;17.84;73.11
63181;BME280;49273;37.772;-122.432;2022-09-01T04:19:23;100725.85;;;17.70;73.31
63181;BME280;49273;37.772;-122.432;2022-09-01T04:21:53;100728.78;;;17.50;73.94
63181;BME280;49273;37.772;-122.432;2022-09-01T04:24:23;100729.86;;;17.81;72.77
63181;BME280;49273;37.772;-122.432;2022-09-01T04:26:52;100729.88;;;17.88;72.31
63181;BME280;49273;37.772;-122.432;2022-09-01T04:29:22;100732.59;;;17.89;71.73
63181;BME280;49273;37.772;-122.432;2022-09-01T04:31:49;100734.40;;;18.03;71.37
63181;BME280;49273;37.772;-122.432;2022-09-01T04:34:18;100729.33;;;17.93;70.94
63181;BME280;49273;37.772;-122.432;2022-09-01T04:36:47;100726.67;;;17.95;70.98
63181;BME280;49273;37.772;-122.432;2022-09-01T04:39:15;100722.95;;;17.89;71.05
63181;BME280;49273;37.772;-122.432;2022-09-01T04:41:44;100718.21;;;17.97;71.16
63181;BME280;49273;37.772;-122.432;2022-09-01T04:44:13;100718.23;;;18.05;70.77
63181;BME280;49273;37.772;-122.432;2022-09-01T04:46:42;100716.40;;;17.88;71.30
63181;BME280;49273;37.772;-122.432;2022-09-01T04:49:11;100708.70;;;18.03;70.80
63181;BME280;49273;37.772;-122.432;2022-09-01T04:51:40;100712.71;;;17.97;70.72
63181;BME280;49273;37.772;-122.432;2022-09-01T04:54:10;100707.71;;;17.88;71.29
63181;BME280;49273;37.772;-122.432;2022-09-01T04:56:40;100705.48;;;17.78;71.28
63181;BME280;49273;37.772;-122.432;2022-09-01T04:59:10;100703.17;;;17.84;70.81
63181;BME280;49273;37.772;-122.432;2022-09-01T05:01:39;100704.87;;;17.95;70.47
63181;BME280;49273;37.772;-122.432;2022-09-01T05:04:09;100703.77;;;18.05;70.16
63181;BME280;49273;37.772;-122.432;2022-09-01T05:06:41;100704.52;;;17.87;70.90
63181;BME280;49273;37.772;-122.432;2022-09-01T05:09:10;100708.30;;;17.77;71.19
63181;BME280;49273;37.772;-122.432;2022-09-01T05:11:40;100710.28;;;17.83;71.02
63181;BME280;49273;37.772;-122.432;2022-09-01T05:14:09;100711.07;;;17.87;70.72
63181;BME280;49273;37.772;-122.432;2022-09-01T05:16:37;100710.93;;;17.76;71.16
63181;BME280;49273;37.772;-122.432;2022-09-01T05:19:08;100713.68;;;17.85;70.93
63181;BME280;49273;37.772;-122.432;2022-09-01T05:21:37;100713.41;;;17.97;70.32
63181;BME280;49273;37.772;-122.432;2022-09-01T05:24:06;100711.67;;;17.80;70.84
63181;BME280;49273;37.772;-122.432;2022-09-01T05:26:34;100710.24;;;17.89;70.57
63181;BME280;49273;37.772;-122.432;2022-09-01T05:29:04;100714.55;;;17.93;70.00
63181;BME280;49273;37.772;-122.432;2022-09-01T05:31:33;100708.90;;;17.97;69.84
63181;BME280;49273;37.772;-122.432;2022-09-01T05:34:01;100702.86;;;17.99;69.68
63181;BME280;49273;37.772;-122.432;2022-09-01T05:36:30;100699.60;;;17.90;69.98
63181;BME280;49273;37.772;-122.432;2022-09-01T05:38:59;100696.25;;;17.88;70.06
63181;BME280;49273;37.772;-122.432;2022-09-01T05:41:27;100697.54;;;17.92;70.03
63181;BME280;49273;37.772;-122.432;2022-09-01T05:43:55;100698.47;;;17.74;71.03
63181;BME280;49273;37.772;-122.432;2022-09-01T05:46:25;100696.58;;;17.89;70.27
63181;BME280;49273;37.772;-122.432;2022-09-01T05:48:54;100702.33;;;17.89;70.31
63181;BME280;49273;37.772;-122.432;2022-09-01T05:51:25;100703.95;;;17.90;70.73
63181;BME280;49273;37.772;-122.432;2022-09-01T05:53:55;100703.46;;;17.89;70.67
63181;BME280;49273;37.772;-122.432;2022-09-01T05:56:25;100698.56;;;17.96;70.62
63181;BME280;49273;37.772;-122.432;2022-09-01T05:58:54;100698.89;;;17.85;70.98
63181;BME280;49273;37.772;-122.432;2022-09-01T06:01:25;100698.54;;;17.87;70.86
63181;BME280;49273;37.772;-122.432;2022-09-01T06:03:55;100696.37;;;17.72;71.43
63181;BME280;49273;37.772;-122.432;2022-09-01T06:06:25;100698.17;;;17.83;71.04
63181;BME280;49273;37.772;-122.432;2022-09-01T06:08:54;100697.03;;;17.82;71.20
63181;BME280;49273;37.772;-122.432;2022-09-01T06:11:22;100694.54;;;17.83;71.23
63181;BME280;49273;37.772;-122.432;2022-09-01T06:13:51;100692.00;;;17.71;71.38
63181;BME280;49273;37.772;-122.432;2022-09-01T06:16:19;100694.75;;;17.66;71.49
63181;BME280;49273;37.772;-122.432;2022-09-01T06:18:48;100697.10;;;17.71;71.40
63181;BME280;49273;37.772;-122.432;2022-09-01T06:21:16;100697.11;;;17.74;71.11
63181;BME280;49273;37.772;-122.432;2022-09-01T06:23:45;100691.47;;;17.75;70.91
63181;BME280;49273;37.772;-122.432;2022-09-01T06:26:17;100688.91;;;17.65;71.33
63181;BME280;49273;37.772;-122.432;2022-09-01T06:28:45;100682.91;;;17.67;70.98
63181;BME280;49273;37.772;-122.432;2022-09-01T06:31:14;100684.04;;;17.74;70.39
63181;BME280;49273;37.772;-122.432;2022-09-01T06:33:41;100683.88;;;17.48;71.00
63181;BME280;49273;37.772;-122.432;2022-09-01T06:36:09;100688.58;;;17.47;71.51
63181;BME280;49273;37.772;-122.432;2022-09-01T06:38:37;100689.74;;;17.43;71.64
63181;BME280;49273;37.772;-122.432;2022-09-01T06:41:07;100685.93;;;17.63;70.59
63181;BME280;49273;37.772;-122.432;2022-09-01T06:43:35;100685.09;;;17.74;70.09
63181;BME280;49273;37.772;-122.432;2022-09-01T06:46:03;100687.09;;;17.63;70.41
63181;BME280;49273;37.772;-122.432;2022-09-01T06:48:32;100684.66;;;17.71;70.22
63181;BME280;49273;37.772;-122.432;2022-09-01T06:51:00;100682.50;;;17.70;69.96
63181;BME280;49273;37.772;-122.432;2022-09-01T06:53:29;100683.11;;;17.46;71.06
63181;BME280;49273;37.772;-122.432;2022-09-01T06:55:58;100680.23;;;17.42;70.88
63181;BME280;49273;37.772;-122.432;2022-09-01T06:58:26;100680.13;;;17.43;71.19
63181;BME280;49273;37.772;-122.432;2022-09-01T07:00:55;100678.61;;;17.52;70.97
63181;BME280;49273;37.772;-122.432;2022-09-01T07:03:25;100680.52;;;17.33;71.80
63181;BME280;49273;37.772;-122.432;2022-09-01T07:05:53;100676.81;;;17.46;71.41
63181;BME280;49273;37.772;-122.432;2022-09-01T07:08:22;100678.65;;;17.54;71.07
63181;BME280;49273;37.772;-122.432;2022-09-01T07:10:51;100685.92;;;17.44;71.65
63181;BME280;49273;37.772;-122.432;2022-09-01T07:13:21;100681.55;;;17.43;71.55
63181;BME280;49273;37.772;-122.432;2022-09-01T07:15:50;100675.74;;;17.40;71.51
63181;BME280;49273;37.772;-122.432;2022-09-01T07:18:21;100669.10;;;17.50;71.00
63181;BME280;49273;37.772;-122.432;2022-09-01T07:20:50;100669.22;;;17.56;70.65
63181;BME280;49273;37.772;-122.432;2022-09-01T07:23:19;100673.32;;;17.50;70.78
63181;BME280;49273;37.772;-122.432;2022-09-01T07:25:49;100679.63;;;17.46;71.19
63181;BME280;49273;37.772;-122.432;2022-09-01T07:28:17;100682.22;;;17.36;71.74
63181;BME280;49273;37.772;-122.432;2022-09-01T07:30:48;100686.35;;;17.41;71.40
63181;BME280;49273;37.772;-122.432;2022-09-01T07:33:19;100687.10;;;17.50;71.02
63181;BME280;49273;37.772;-122.432;2022-09-01T07:35:48;100687.85;;;17.31;71.74
63181;BME280;49273;37.772;-122.432;2022-09-01T07:38:16;100686.91;;;17.38;71.49
63181;BME280;49273;37.772;-122.432;2022-09-01T07:40:45;100687.73;;;17.37;71.73
63181;BME280;49273;37.772;-122.432;2022-09-01T07:43:16;100687.72;;;17.19;72.41
63181;BME280;49273;37.772;-122.432;2022-09-01T07:45:45;100691.03;;;17.34;72.05
63181;BME280;49273;37.772;-122.432;2022-09-01T07:48:13;100691.57;;;17.25;72.27
63181;BME280;49273;37.772;-122.432;2022-09-01T07:50:43;100684.50;;;17.27;72.07
63181;BME280;49273;37.772;-122.432;2022-09-01T07:53:11;100685.67;;;17.30;71.74
63181;BME280;49273;37.772;-122.432;2022-09-01T07:55:40;100682.40;;;17.22;72.30
63181;BME280;49273;37.772;-122.432;2022-09-01T07:58:09;100681.75;;;17.19;72.07
63181;BME280;49273;37.772;-122.432;2022-09-01T08:00:38;100682.91;;;17.23;72.33
63181;BME280;49273;37.772;-122.432;2022-09-01T08:03:08;100684.54;;;17.10;73.14
63181;BME280;49273;37.772;-122.432;2022-09-01T08:05:37;100680.53;;;17.20;73.46
63181;BME280;49273;37.772;-122.432;2022-09-01T08:08:06;100679.62;;;17.12;73.82
63181;BME280;49273;37.772;-122.432;2022-09-01T08:10:38;100682.31;;;17.16;73.97
63181;BME280;49273;37.772;-122.432;2022-09-01T08:13:09;100684.00;;;17.18;73.87
63181;BME280;49273;37.772;-122.432;2022-09-01T08:15:38;100685.78;;;17.15;73.67
63181;BME280;49273;37.772;-122.432;2022-09-01T08:18:08;100685.82;;;17.13;73.92
63181;BME280;49273;37.772;-122.432;2022-09-01T08:20:38;100684.77;;;17.02;74.41
63181;BME280;49273;37.772;-122.432;2022-09-01T08:23:08;100683.71;;;16.94;74.71
63181;BME280;49273;37.772;-122.432;2022-09-01T08:25:37;100685.18;;;16.97;74.88
63181;BME280;49273;37.772;-122.432;2022-09-01T08:28:08;100679.41;;;16.82;75.17
63181;BME280;49273;37.772;-122.432;2022-09-01T08:30:39;100676.51;;;16.91;74.82
63181;BME280;49273;37.772;-122.432;2022-09-01T08:33:09;100674.86;;;16.86;74.99
63181;BME280;49273;37.772;-122.432;2022-09-01T08:35:38;100674.97;;;16.88;75.13
63181;BME280;49273;37.772;-122.432;2022-09-01T08:38:07;100673.21;;;16.75;75.54
63181;BME280;49273;37.772;-122.432;2022-09-01T08:40:36;100672.42;;;16.82;75.30
63181;BME280;49273;37.772;-122.432;2022-09-01T08:43:15;100671.69;;;16.85;75.22
63181;BME280;49273;37.772;-122.432;2022-09-01T08:45:48;100669.53;;;16.86;74.75
63181;BME280;49273;37.772;-122.432;2022-09-01T08:48:21;100664.78;;;16.80;75.26
63181;BME280;49273;37.772;-122.432;2022-09-01T08:50:55;100661.28;;;16.74;75.27
63181;BME280;49273;37.772;-122.432;2022-09-01T08:53:33;100659.59;;;16.83;75.17
63181;BME280;49273;37.772;-122.432;2022-09-01T08:56:04;100656.41;;;16.80;75.20
63181;BME280;49273;37.772;-122.432;2022-09-01T08:58:33;100657.62;;;16.90;74.90
63181;BME280;49273;37.772;-122.432;2022-09-01T09:01:06;100661.68;;;16.85;75.10
63181;BME280;49273;37.772;-122.432;2022-09-01T09:03:44;100662.77;;;16.87;75.13
63181;BME280;49273;37.772;-122.432;2022-09-01T09:06:18;100661.34;;;16.91;74.40
63181;BME280;49273;37.772;-122.432;2022-09-01T09:08:55;100660.02;;;16.77;74.77
63181;BME280;49273;37.772;-122.432;2022-09-01T09:11:42;100657.17;;;16.90;74.76
63181;BME280;49273;37.772;-122.432;2022-09-01T09:14:23;100657.84;;;16.83;74.88
63181;BME280;49273;37.772;-122.432;2022-09-01T09:16:56;100657.16;;;16.59;75.57
63181;BME280;49273;37.772;-122.432;2022-09-01T09:19:29;100654.88;;;16.44;76.32
63181;BME280;49273;37.772;-122.432;2022-09-01T09:21:59;100651.26;;;16.53;76.05
63181;BME280;49273;37.772;-122.432;2022-09-01T09:24:30;100650.68;;;16.46;76.37
63181;BME280;49273;37.772;-122.432;2022-09-01T09:26:59;100652.80;;;16.51;76.40
63181;BME280;49273;37.772;-122.432;2022-09-01T09:29:28;100651.17;;;16.61;75.80
63181;BME280;49273;37.772;-122.432;2022-09-01T09:32:04;100652.02;;;16.65;75.59
63181;BME280;49273;37.772;-122.432;2022-09-01T09:34:35;100655.11;;;16.70;75.45
63181;BME280;49273;37.772;-122.432;2022-09-01T09:37:23;100656.87;;;16.67;75.82
63181;BME280;49273;37.772;-122.432;2022-09-01T09:40:06;100656.46;;;16.75;76.06
63181;BME280;49273;37.772;-122.432;2022-09-01T09:42:35;100657.74;;;16.66;76.50
63181;BME280;49273;37.772;-122.432;2022-09-01T09:45:05;100655.00;;;16.64;76.92
63181;BME280;49273;37.772;-122.432;2022-09-01T09:47:41;100651.19;;;16.54;77.45
63181;BME280;49273;37.772;-122.432;2022-09-01T09:50:15;100648.13;;;16.56;77.44
63181;BME280;49273;37.772;-122.432;2022-09-01T09:52:44;100647.24;;;16.71;77.04
63181;BME280;49273;37.772;-122.432;2022-09-01T09:55:23;100648.92;;;16.52;77.44
63181;BME280;49273;37.772;-122.432;2022-09-01T09:57:56;100653.93;;;16.42;78.26
63181;BME280;49273;37.772;-122.432;2022-09-01T10:00:30;100654.97;;;16.43;78.58
63181;BME280;49273;37.772;-122.432;2022-09-01T10:03:00;100657.05;;;16.36;79.29
63181;BME280;49273;37.772;-122.432;2022-09-01T10:05:36;100656.05;;;16.24;79.84
63181;BME280;49273;37.772;-122.432;2022-09-01T10:08:07;100655.81;;;16.22;80.28
63181;BME280;49273;37.772;-122.432;2022-09-01T10:10:40;100659.33;;;16.15;80.42
63181;BME280;49273;37.772;-122.432;2022-09-01T10:13:12;100658.04;;;16.17;80.44
63181;BME280;49273;37.772;-122.432;2022-09-01T10:15:48;100658.64;;;16.00;81.51
63181;BME280;49273;37.772;-122.432;2022-09-01T10:18:19;100660.62;;;15.76;82.48
63181;BME280;49273;37.772;-122.432;2022-09-01T10:20:55;100658.88;;;15.90;82.16
63181;BME280;49273;37.772;-122.432;2022-09-01T10:23:25;100657.77;;;15.96;82.08
63181;BME280;49273;37.772;-122.432;2022-09-01T10:25:53;100656.68;;;15.87;82.33
63181;BME280;49273;37.772;-122.432;2022-09-01T10:28:23;100660.11;;;15.86;82.46
63181;BME280;49273;37.772;-122.432;2022-09-01T10:30:54;100658.46;;;15.99;82.08
63181;BME280;49273;37.772;-122.432;2022-09-01T10:33:22;100660.62;;;15.74;82.47
63181;BME280;49273;37.772;-122.432;2022-09-01T10:35:52;100659.84;;;15.83;82.48
63181;BME280;49273;37.772;-122.432;2022-09-01T10:38:22;100661.48;;;15.92;81.49
63181;BME280;49273;37.772;-122.432;2022-09-01T10:40:52;100660.55;;;15.93;81.23
63181;BME280;49273;37.772;-122.432;2022-09-01T10:43:34;100664.73;;;15.86;81.46
63181;BME280;49273;37.772;-122.432;2022-09-01T10:46:41;100660.40;;;15.85;81.50
63181;BME280;49273;37.772;-122.432;2022-09-01T10:49:20;100665.54;;;15.82;81.82
63181;BME280;49273;37.772;-122.432;2022-09-01T10:51:48;100664.91;;;15.76;81.97
63181;BME280;49273;37.772;-122.432;2022-09-01T10:55:08;100662.86;;;15.68;82.83
63181;BME280;49273;37.772;-122.432;2022-09-01T10:57:47;100661.07;;;15.59;83.42
63181;BME280;49273;37.772;-122.432;2022-09-01T11:00:49;100662.88;;;15.55;83.76
63181;BME280;49273;37.772;-122.432;2022-09-01T11:03:56;100666.41;;;15.46;83.97
63181;BME280;49273;37.772;-122.432;2022-09-01T11:06:58;100663.89;;;15.52;83.73
63181;BME280;49273;37.772;-122.432;2022-09-01T11:09:31;100662.33;;;15.38;83.85
63181;BME280;49273;37.772;-122.432;2022-09-01T11:12:49;100662.45;;;15.20;85.14
63181;BME280;49273;37.772;-122.432;2022-09-01T11:15:43;100660.45;;;15.15;85.12
63181;BME280;49273;37.772;-122.432;2022-09-01T11:18:14;100656.13;;;15.14;85.28
63181;BME280;49273;37.772;-122.432;2022-09-01T11:20:44;100652.94;;;15.36;84.64
63181;BME280;49273;37.772;-122.432;2022-09-01T11:23:22;100651.03;;;15.05;85.21
63181;BME280;49273;37.772;-122.432;2022-09-01T11:25:52;100651.83;;;15.06;85.84
63181;BME280;49273;37.772;-122.432;2022-09-01T11:28:40;100655.31;;;15.13;85.89
63181;BME280;49273;37.772;-122.432;2022-09-01T11:31:25;100652.62;;;14.95;86.95
63181;BME280;49273;37.772;-122.432;2022-09-01T11:34:28;100653.83;;;14.89;87.12
63181;BME280;49273;37.772;-122.432;2022-09-01T11:36:59;100651.79;;;15.02;87.36
63181;BME280;49273;37.772;-122.432;2022-09-01T11:39:40;100654.77;;;14.86;87.13
63181;BME280;49273;37.772;-122.432;2022-09-01T11:42:15;100655.89;;;14.69;88.48
63181;BME280;49273;37.772;-122.432;2022-09-01T11:44:49;100660.70;;;14.79;88.59
63181;BME280;49273;37.772;-122.432;2022-09-01T11:47:20;100663.37;;;14.81;88.75
63181;BME280;49273;37.772;-122.432;2022-09-01T11:49:52;100659.12;;;14.61;89.60
63181;BME280;49273;37.772;-122.432;2022-09-01T11:52:24;100661.67;;;14.86;89.52
63181;BME280;49273;37.772;-122.432;2022-09-01T11:54:53;100664.37;;;14.90;88.61
63181;BME280;49273;37.772;-122.432;2022-09-01T11:57:25;100658.23;;;14.83;88.54
63181;BME280;49273;37.772;-122.432;2022-09-01T11:59:54;100660.61;;;14.72;89.39
63181;BME280;49273;37.772;-122.432;2022-09-01T12:02:25;100663.88;;;14.85;88.40
63181;BME280;49273;37.772;-122.432;2022-09-01T12:04:55;100667.98;;;14.70;89.05
63181;BME280;49273;37.772;-122.432;2022-09-01T12:07:36;100664.98;;;14.84;88.98
63181;BME280;49273;37.772;-122.432;2022-09-01T12:10:16;100663.56;;;14.83;88.70
63181;BME280;49273;37.772;-122.432;2022-09-01T12:12:46;100667.54;;;14.87;88.90
63181;BME280;49273;37.772;-122.432;2022-09-01T12:15:20;100664.13;;;14.95;88.11
63181;BME280;49273;37.772;-122.432;2022-09-01T12:17:48;100667.61;;;14.95;88.51
63181;BME280;49273;37.772;-122.432;2022-09-01T12:20:23;100672.55;;;14.86;88.46
63181;BME280;49273;37.772;-122.432;2022-09-01T12:22:52;100671.19;;;14.57;89.60
63181;BME280;49273;37.772;-122.432;2022-09-01T12:25:22;100674.38;;;14.95;88.02
63181;BME280;49273;37.772;-122.432;2022-09-01T12:27:51;100669.58;;;14.62;88.52
63181;BME280;49273;37.772;-122.432;2022-09-01T12:30:20;100675.36;;;14.41;90.03
63181;BME280;49273;37.772;-122.432;2022-09-01T12:32:49;100677.49;;;14.62;89.75
63181;BME280;49273;37.772;-122.432;2022-09-01T12:35:22;100677.88;;;14.87;88.46
63181;BME280;49273;37.772;-122.432;2022-09-01T12:37:50;100676.59;;;14.82;88.16
63181;BME280;49273;37.772;-122.432;2022-09-01T12:40:25;100672.10;;;14.64;89.27